createdAt,value
2019-05-07T00:00:37.941Z,15.98
2019-05-07T00:03:07.423Z,16.17
2019-05-07T00:05:37.836Z,17.80
2019-05-07T00:08:07.140Z,14.70
2019-05-07T00:10:36.442Z,17.60
2019-05-07T00:13:05.743Z,17.20
2019-05-07T00:15:35.380Z,18.62
2019-05-07T00:18:04.746Z,18.15
2019-05-07T00:20:34.017Z,18.95
2019-05-07T00:23:03.488Z,22.98
2019-05-07T00:25:33.050Z,22.02
2019-05-07T00:28:02.931Z,23.75
2019-05-07T00:30:33.403Z,20.60
2019-05-07T00:33:03.038Z,23.55
2019-05-07T00:35:39.681Z,22.50
2019-05-07T00:38:13.461Z,24.23
2019-05-07T00:40:44.431Z,22.58
2019-05-07T00:43:15.368Z,24.98
2019-05-07T00:45:49.560Z,23.87
2019-05-07T00:48:18.940Z,22.07
2019-05-07T00:50:49.898Z,25.02
2019-05-07T00:53:19.229Z,27.70
2019-05-07T00:55:48.539Z,26.20
2019-05-07T00:58:17.866Z,27.40
2019-05-07T01:00:47.129Z,28.87
2019-05-07T01:03:16.432Z,28.62
2019-05-07T01:05:45.729Z,33.83
2019-05-07T01:08:15.034Z,30.65
2019-05-07T01:10:44.354Z,28.92
2019-05-07T01:13:13.665Z,30.48
2019-05-07T01:15:43.204Z,28.40
2019-05-07T01:18:12.546Z,29.57
2019-05-07T01:20:42.397Z,32.67
2019-05-07T01:23:13.383Z,37.53
2019-05-07T01:25:43.213Z,35.65
2019-05-07T01:28:13.257Z,37.33
2019-05-07T01:30:43.325Z,33.60
2019-05-07T01:33:22.661Z,34.80
2019-05-07T01:35:56.168Z,33.88
2019-05-07T01:38:25.840Z,38.28
2019-05-07T01:40:55.190Z,34.58
2019-05-07T01:43:24.485Z,39.48
2019-05-07T01:45:53.755Z,34.48
2019-05-07T01:48:23.194Z,35.90
2019-05-07T01:50:52.717Z,41.15
2019-05-07T01:53:23.181Z,40.38
2019-05-07T01:55:53.893Z,38.00
2019-05-07T01:58:23.364Z,44.57
2019-05-07T02:00:53.295Z,44.63
2019-05-07T02:03:24.264Z,37.05
2019-05-07T02:05:55.216Z,44.18
2019-05-07T02:08:42.316Z,42.65
2019-05-07T02:11:22.777Z,42.83
2019-05-07T02:13:52.983Z,45.55
2019-05-07T02:16:22.269Z,44.42
2019-05-07T02:18:52.828Z,43.02
2019-05-07T02:21:22.210Z,41.02
2019-05-07T02:23:52.355Z,40.65
2019-05-07T02:26:22.624Z,41.35
2019-05-07T02:28:52.153Z,43.63
2019-05-07T02:31:23.253Z,45.85
2019-05-07T02:33:54.082Z,46.28
2019-05-07T02:36:24.012Z,41.70
2019-05-07T02:38:55.314Z,44.77
2019-05-07T02:41:29.320Z,50.73
2019-05-07T02:44:00.099Z,48.13
2019-05-07T02:46:47.661Z,51.55
2019-05-07T02:49:32.705Z,52.53
2019-05-07T02:52:04.201Z,56.77
2019-05-07T02:54:35.251Z,48.63
2019-05-07T02:57:04.591Z,52.80
2019-05-07T02:59:34.001Z,49.80
2019-05-07T03:02:03.788Z,53.80
2019-05-07T03:04:33.544Z,55.92
2019-05-07T03:07:03.986Z,54.45
2019-05-07T03:09:33.477Z,53.45
2019-05-07T03:12:03.953Z,52.27
2019-05-07T03:14:33.789Z,55.12
2019-05-07T03:17:04.029Z,62.33
2019-05-07T03:19:34.985Z,52.90
2019-05-07T03:22:04.331Z,57.60
2019-05-07T03:24:44.023Z,54.70
2019-05-07T03:27:14.272Z,57.85
2019-05-07T03:29:45.417Z,56.50
2019-05-07T03:32:27.639Z,57.75
2019-05-07T03:35:06.692Z,60.87
2019-05-07T03:37:36.485Z,65.03
2019-05-07T03:40:08.126Z,59.55
2019-05-07T03:42:38.366Z,59.77
2019-05-07T03:45:13.446Z,62.00
2019-05-07T03:47:43.929Z,63.10
2019-05-07T03:50:15.099Z,56.77
2019-05-07T03:52:44.552Z,55.67
2019-05-07T03:55:14.783Z,52.93
2019-05-07T03:57:44.334Z,54.80
2019-05-07T04:00:14.053Z,53.10
2019-05-07T04:02:44.072Z,58.98
2019-05-07T04:05:14.507Z,52.25
2019-05-07T04:07:43.795Z,51.02
2019-05-07T04:10:15.067Z,51.42
2019-05-07T04:12:44.629Z,56.65
2019-05-07T04:15:18.831Z,50.92
2019-05-07T04:17:45.199Z,47.50
2019-05-07T04:20:14.769Z,50.78
2019-05-07T04:22:44.269Z,45.35
2019-05-07T04:25:24.050Z,46.33
2019-05-07T04:27:53.674Z,46.50
2019-05-07T04:30:23.731Z,47.48
2019-05-07T04:32:54.797Z,41.58
2019-05-07T04:35:43.421Z,47.30
2019-05-07T04:38:13.863Z,46.23
2019-05-07T04:40:43.833Z,44.50
2019-05-07T04:43:13.833Z,45.23
2019-05-07T04:45:43.651Z,41.50
2019-05-07T04:48:14.085Z,41.63
2019-05-07T04:50:47.942Z,39.03
2019-05-07T04:53:16.472Z,40.45
2019-05-07T04:55:46.840Z,36.93
2019-05-07T04:58:16.120Z,39.35
2019-05-07T05:00:45.425Z,43.92
2019-05-07T05:03:17.254Z,37.35
2019-05-07T05:05:46.554Z,42.40
2019-05-07T05:08:15.836Z,38.17
2019-05-07T05:10:45.181Z,39.00
2019-05-07T05:13:14.468Z,41.35
2019-05-07T05:15:43.769Z,40.83
2019-05-07T05:18:13.211Z,43.68
2019-05-07T05:20:51.897Z,41.33
2019-05-07T05:23:32.342Z,43.17
2019-05-07T05:26:01.994Z,38.67
2019-05-07T05:28:32.350Z,44.83
2019-05-07T05:31:03.496Z,48.35
2019-05-07T05:33:32.918Z,51.37
2019-05-07T05:36:03.050Z,49.75
2019-05-07T05:38:33.186Z,56.73
2019-05-07T05:41:02.862Z,60.88
2019-05-07T05:43:35.079Z,60.28
2019-05-07T05:46:06.163Z,61.45
2019-05-07T05:48:35.434Z,58.33
2019-05-07T05:51:11.770Z,59.58
2019-05-07T05:53:44.911Z,59.85
2019-05-07T05:56:22.835Z,57.35
2019-05-07T05:59:05.942Z,57.25
2019-05-07T06:04:29.600Z,54.67
2019-05-07T06:07:11.478Z,56.50
2019-05-07T06:09:56.287Z,55.58
2019-05-07T06:12:42.896Z,57.58
2019-05-07T06:15:14.178Z,57.53
2019-05-07T06:17:51.815Z,58.13
2019-05-07T06:20:25.773Z,54.10
2019-05-07T06:23:13.060Z,54.73
2019-05-07T06:25:44.172Z,54.20
2019-05-07T06:28:13.627Z,55.55
2019-05-07T06:30:42.918Z,49.42
2019-05-07T06:33:12.560Z,48.78
2019-05-07T06:35:42.940Z,49.33
2019-05-07T06:38:13.406Z,52.33
2019-05-07T06:41:02.653Z,46.73
2019-05-07T06:43:48.613Z,46.92
2019-05-07T06:46:17.927Z,45.03
2019-05-07T06:48:47.393Z,40.65
2019-05-07T06:51:17.657Z,40.85
2019-05-07T06:53:47.096Z,44.08
2019-05-07T06:56:16.695Z,43.63
2019-05-07T06:58:47.655Z,43.58
2019-05-07T07:01:22.819Z,40.35
2019-05-07T07:03:59.773Z,44.30
2019-05-07T07:06:32.192Z,44.77
2019-05-07T07:09:03.323Z,43.73
2019-05-07T07:11:36.033Z,45.63
2019-05-07T07:14:06.201Z,40.23
2019-05-07T07:16:35.552Z,41.13
2019-05-07T07:19:04.957Z,40.85
2019-05-07T07:21:35.768Z,44.18
2019-05-07T07:24:05.114Z,36.85
2019-05-07T07:26:36.045Z,37.83
2019-05-07T07:29:06.463Z,35.73
2019-05-07T07:31:42.590Z,33.60
2019-05-07T07:34:12.952Z,41.75
2019-05-07T07:36:47.103Z,34.92
2019-05-07T07:39:16.413Z,35.15
2019-05-07T07:41:47.372Z,33.67
2019-05-07T07:44:16.744Z,30.70
2019-05-07T07:46:46.023Z,31.55
2019-05-07T07:49:15.489Z,26.82
2019-05-07T07:51:45.770Z,29.10
2019-05-07T07:54:16.400Z,25.08
2019-05-07T07:56:56.476Z,23.40
2019-05-07T07:59:42.214Z,27.05
2019-05-07T08:02:13.449Z,27.20
2019-05-07T08:04:43.012Z,30.20
2019-05-07T08:07:12.568Z,32.20
2019-05-07T08:09:42.877Z,29.98
2019-05-07T08:12:13.873Z,24.40
2019-05-07T08:14:43.478Z,26.93
2019-05-07T08:17:13.259Z,27.77
2019-05-07T08:19:45.004Z,28.38
2019-05-07T08:22:14.454Z,28.42
2019-05-07T08:24:43.779Z,31.37
2019-05-07T08:27:15.346Z,22.85
2019-05-07T08:29:44.103Z,24.05
2019-05-07T08:32:27.461Z,21.17
2019-05-07T08:34:58.395Z,23.38
2019-05-07T08:37:27.706Z,23.15
2019-05-07T08:39:58.599Z,25.02
2019-05-07T08:42:27.899Z,23.67
2019-05-07T08:44:58.904Z,22.70
2019-05-07T08:47:32.562Z,23.92
2019-05-07T08:50:04.710Z,24.10
2019-05-07T08:52:34.260Z,22.95
2019-05-07T08:55:04.969Z,24.45
2019-05-07T08:57:35.561Z,23.70
2019-05-07T09:00:08.289Z,27.13
2019-05-07T09:02:37.599Z,24.18
2019-05-07T09:05:09.211Z,24.40
2019-05-07T09:07:38.817Z,23.12
2019-05-07T09:10:08.321Z,23.25
2019-05-07T09:12:37.691Z,21.82
2019-05-07T09:15:07.935Z,28.25
2019-05-07T09:17:38.418Z,25.35
2019-05-07T09:20:12.110Z,23.80
2019-05-07T09:22:42.752Z,22.75
2019-05-07T09:25:13.068Z,17.98
2019-05-07T09:27:44.415Z,20.35
2019-05-07T09:30:32.806Z,19.95
2019-05-07T09:33:03.762Z,16.87
2019-05-07T09:35:34.713Z,16.95
2019-05-07T09:38:04.237Z,14.75
2019-05-07T09:40:34.605Z,15.70
2019-05-07T09:43:03.912Z,14.20
2019-05-07T09:45:34.309Z,16.20
2019-05-07T09:48:03.870Z,17.75
2019-05-07T09:50:33.223Z,18.07
2019-05-07T09:53:02.638Z,21.05
2019-05-07T09:55:32.623Z,20.08
2019-05-07T09:58:02.254Z,17.70
2019-05-07T10:00:32.738Z,19.15
2019-05-07T10:03:02.249Z,18.98
2019-05-07T10:05:32.180Z,17.02
2019-05-07T10:08:01.956Z,20.40
2019-05-07T10:10:32.900Z,17.57
2019-05-07T10:13:06.840Z,16.77
2019-05-07T10:15:36.295Z,16.55
2019-05-07T10:18:12.225Z,15.90
2019-05-07T10:20:42.144Z,17.92
2019-05-07T10:23:13.699Z,19.00
2019-05-07T10:25:43.048Z,18.35
2019-05-07T10:28:12.598Z,25.25
2019-05-07T10:30:42.805Z,22.02
2019-05-07T10:33:12.514Z,24.95
2019-05-07T10:35:43.425Z,25.75
2019-05-07T10:38:13.111Z,26.12
2019-05-07T10:40:42.507Z,28.00
2019-05-07T10:43:11.886Z,28.70
2019-05-07T10:45:48.899Z,30.10
2019-05-07T10:48:38.168Z,28.35
2019-05-07T10:51:07.520Z,32.08
2019-05-07T10:53:36.975Z,28.47
2019-05-07T10:56:06.254Z,28.38
2019-05-07T10:58:35.777Z,28.80
2019-05-07T11:01:05.468Z,28.45
2019-05-07T11:03:34.826Z,30.95
2019-05-07T11:06:04.172Z,34.83
2019-05-07T11:08:33.705Z,35.20
2019-05-07T11:11:03.198Z,28.98
2019-05-07T11:13:32.507Z,30.05
2019-05-07T11:16:06.102Z,29.40
2019-05-07T11:18:38.571Z,25.35
2019-05-07T11:21:09.369Z,24.37
2019-05-07T11:23:38.730Z,22.85
2019-05-07T11:26:08.036Z,21.73
2019-05-07T11:28:37.330Z,20.75
2019-05-07T11:31:06.615Z,19.35
2019-05-07T11:33:36.892Z,20.48
2019-05-07T11:36:06.175Z,22.90
2019-05-07T11:38:35.496Z,19.32
2019-05-07T11:41:04.911Z,19.52
2019-05-07T11:43:55.304Z,18.98
2019-05-07T11:46:28.861Z,19.80
2019-05-07T11:49:13.878Z,18.98
2019-05-07T11:51:54.320Z,21.52
2019-05-07T11:54:23.631Z,20.40
2019-05-07T11:56:55.563Z,23.75
2019-05-07T11:59:25.099Z,22.27
2019-05-07T12:02:00.648Z,22.55
2019-05-07T12:04:31.878Z,24.55
2019-05-07T12:07:02.564Z,23.62
2019-05-07T12:09:33.286Z,23.70
2019-05-07T12:12:03.011Z,26.23
2019-05-07T12:14:34.850Z,17.77
2019-05-07T12:17:03.734Z,21.45
2019-05-07T12:19:33.228Z,23.65
2019-05-07T12:22:03.717Z,21.80
2019-05-07T12:24:33.030Z,22.58
2019-05-07T12:27:02.741Z,18.62
2019-05-07T12:29:32.412Z,19.00
2019-05-07T12:32:03.534Z,19.55
2019-05-07T12:34:34.670Z,18.82
2019-05-07T12:37:04.226Z,17.40
2019-05-07T12:39:33.655Z,19.35
2019-05-07T12:42:03.128Z,17.40
2019-05-07T12:44:32.407Z,19.73
2019-05-07T12:47:01.838Z,14.33
2019-05-07T12:49:32.487Z,15.88
2019-05-07T12:52:03.681Z,19.80
2019-05-07T12:54:38.389Z,16.65
2019-05-07T12:57:08.053Z,17.77
2019-05-07T12:59:37.394Z,18.02
2019-05-07T13:02:36.437Z,21.40
2019-05-07T13:04:52.273Z,20.92
2019-05-07T13:07:23.242Z,17.45
2019-05-07T13:09:53.099Z,19.98
2019-05-07T13:12:22.527Z,17.25
2019-05-07T13:14:52.234Z,18.73
2019-05-07T13:17:22.393Z,18.57
2019-05-07T13:19:52.482Z,17.12
2019-05-07T13:22:22.125Z,18.20
2019-05-07T13:24:52.931Z,19.98
2019-05-07T13:27:22.371Z,18.23
2019-05-07T13:29:53.107Z,18.80
2019-05-07T13:32:23.424Z,18.52
2019-05-07T13:34:53.986Z,23.77
2019-05-07T13:37:32.521Z,19.48
2019-05-07T13:40:06.032Z,23.98
2019-05-07T13:42:41.968Z,21.50
2019-05-07T13:45:12.718Z,21.10
2019-05-07T13:47:43.580Z,20.30
2019-05-07T13:50:13.303Z,22.37
2019-05-07T13:52:44.170Z,19.92
2019-05-07T13:55:13.476Z,20.23
2019-05-07T13:57:42.844Z,24.32
2019-05-07T14:00:15.485Z,22.62
2019-05-07T14:05:14.337Z,24.75
2019-05-07T14:07:44.725Z,22.10
2019-05-07T14:10:14.931Z,20.60
2019-05-07T14:12:45.535Z,18.75
2019-05-07T14:15:14.908Z,19.27
2019-05-07T14:17:44.938Z,23.07
2019-05-07T14:20:14.610Z,21.87
2019-05-07T14:22:43.906Z,20.75
2019-05-07T14:25:13.282Z,19.67
2019-05-07T14:27:42.975Z,22.85
2019-05-07T14:30:13.946Z,22.95
2019-05-07T14:32:47.805Z,22.07
2019-05-07T14:35:19.230Z,21.77
2019-05-07T14:37:52.247Z,20.62
2019-05-07T14:42:56.082Z,20.97
2019-05-07T14:45:25.355Z,24.02
2019-05-07T14:47:54.740Z,21.85
2019-05-07T14:50:24.193Z,22.98
2019-05-07T14:52:55.258Z,23.60
2019-05-07T14:55:24.872Z,21.65
2019-05-07T14:57:54.481Z,21.87
2019-05-07T15:00:24.121Z,20.68
2019-05-07T15:02:54.972Z,22.62
2019-05-07T15:05:24.425Z,20.97
2019-05-07T15:08:07.069Z,21.80
2019-05-07T15:10:26.008Z,18.95
2019-05-07T15:12:55.355Z,18.87
2019-05-07T15:15:24.682Z,20.95
2019-05-07T15:18:03.154Z,18.65
2019-05-07T15:20:37.020Z,21.60
2019-05-07T15:23:07.986Z,21.73
2019-05-07T15:25:37.290Z,20.40
2019-05-07T15:28:07.167Z,18.42
2019-05-07T15:30:38.262Z,23.70
2019-05-07T15:33:07.631Z,24.15
2019-05-07T15:35:37.122Z,23.22
2019-05-07T15:38:11.672Z,21.20
2019-05-07T15:40:42.253Z,21.52
2019-05-07T15:43:13.047Z,21.20
2019-05-07T15:45:42.619Z,18.27
2019-05-07T15:48:12.697Z,19.52
2019-05-07T15:50:42.878Z,21.80
2019-05-07T15:53:14.071Z,20.02
2019-05-07T15:55:43.545Z,21.90
2019-05-07T15:58:12.861Z,20.37
2019-05-07T16:00:42.652Z,20.75
2019-05-07T16:03:14.730Z,20.80
2019-05-07T16:05:44.044Z,20.60
2019-05-07T16:08:15.103Z,20.80
2019-05-07T16:10:44.400Z,20.05
2019-05-07T16:13:15.427Z,19.02
2019-05-07T16:15:44.872Z,20.92
2019-05-07T16:18:23.634Z,20.45
2019-05-07T16:20:52.357Z,21.87
2019-05-07T16:23:22.104Z,21.15
2019-05-07T16:25:52.800Z,20.32
2019-05-07T16:28:22.217Z,19.65
2019-05-07T16:30:55.451Z,19.02
2019-05-07T16:33:24.943Z,19.85
2019-05-07T16:35:54.232Z,21.10
2019-05-07T16:38:23.543Z,20.17
2019-05-07T16:40:52.976Z,21.90
2019-05-07T16:43:22.313Z,19.10
2019-05-07T16:45:51.878Z,21.52
2019-05-07T16:48:23.268Z,20.48
2019-05-07T16:50:52.420Z,18.07
2019-05-07T16:53:29.628Z,20.68
2019-05-07T16:55:52.733Z,20.20
2019-05-07T16:58:32.070Z,20.55
2019-05-07T17:01:03.365Z,18.82
2019-05-07T17:03:34.320Z,19.70
2019-05-07T17:06:03.656Z,27.48
2019-05-07T17:08:35.452Z,19.32
2019-05-07T17:11:04.785Z,20.80
2019-05-07T17:13:34.175Z,18.20
2019-05-07T17:16:03.720Z,22.00
2019-05-07T17:18:33.223Z,20.57
2019-05-07T17:21:04.175Z,18.32
2019-05-07T17:23:43.830Z,18.15
2019-05-07T17:26:05.107Z,19.00
2019-05-07T17:28:34.555Z,18.82
2019-05-07T17:31:03.949Z,18.40
2019-05-07T17:33:33.509Z,15.78
2019-05-07T17:36:02.814Z,19.42
2019-05-07T17:38:32.377Z,19.60
2019-05-07T17:41:10.903Z,17.67
2019-05-07T17:43:33.109Z,21.40
2019-05-07T17:46:02.948Z,16.62
2019-05-07T17:48:33.055Z,16.80
2019-05-07T17:51:07.019Z,19.37
2019-05-07T17:53:37.481Z,19.98
2019-05-07T17:56:06.791Z,19.07
2019-05-07T17:58:36.158Z,18.48
2019-05-07T18:01:06.061Z,17.95
2019-05-07T18:03:37.128Z,18.98
2019-05-07T18:06:07.802Z,19.85
2019-05-07T18:08:38.050Z,19.23
2019-05-07T18:11:20.259Z,20.23
2019-05-07T18:13:38.735Z,19.62
2019-05-07T18:16:12.756Z,19.48
2019-05-07T18:18:43.209Z,20.27
2019-05-07T18:21:12.739Z,23.70
2019-05-07T18:23:42.144Z,17.55
2019-05-07T18:26:16.413Z,20.12
2019-05-07T18:28:42.542Z,22.10
2019-05-07T18:31:12.625Z,18.07
2019-05-07T18:33:44.466Z,19.52
2019-05-07T18:36:13.859Z,21.57
2019-05-07T18:38:43.449Z,18.05
2019-05-07T18:41:12.998Z,19.20
2019-05-07T18:43:42.357Z,21.42
2019-05-07T18:46:12.861Z,19.70
2019-05-07T18:48:42.757Z,20.82
2019-05-07T18:51:13.576Z,21.37
2019-05-07T18:53:42.882Z,21.55
2019-05-07T18:56:12.786Z,26.15
2019-05-07T18:58:42.751Z,22.35
2019-05-07T19:01:13.814Z,20.45
2019-05-07T19:03:43.314Z,21.68
2019-05-07T19:06:13.440Z,20.82
2019-05-07T19:08:44.335Z,20.23
2019-05-07T19:11:14.375Z,21.55
2019-05-07T19:13:43.811Z,24.50
2019-05-07T19:16:13.133Z,26.57
2019-05-07T19:18:43.480Z,23.73
2019-05-07T19:21:12.901Z,22.95
2019-05-07T19:23:42.501Z,23.38
2019-05-07T19:26:13.038Z,23.83
2019-05-07T19:28:42.692Z,23.67
2019-05-07T19:31:12.512Z,22.58
2019-05-07T19:33:42.117Z,28.10
2019-05-07T19:36:11.415Z,22.48
2019-05-07T19:38:42.061Z,27.77
2019-05-07T19:41:12.300Z,25.75
2019-05-07T19:43:42.091Z,25.12
2019-05-07T19:46:12.349Z,23.70
2019-05-07T19:48:43.908Z,25.48
2019-05-07T19:51:12.891Z,24.00
2019-05-07T19:53:42.216Z,24.18
2019-05-07T19:56:16.098Z,24.98
2019-05-07T19:58:45.430Z,24.72
2019-05-07T20:01:18.574Z,28.38
2019-05-07T20:03:47.871Z,24.07
2019-05-07T20:06:17.189Z,26.20
2019-05-07T20:08:46.495Z,25.75
2019-05-07T20:11:23.176Z,23.10
2019-05-07T20:13:52.559Z,26.15
2019-05-07T20:16:23.386Z,26.10
2019-05-07T20:18:52.822Z,25.82
2019-05-07T20:21:22.976Z,26.80
2019-05-07T20:23:53.298Z,26.70
2019-05-07T20:26:23.294Z,26.70
2019-05-07T20:28:52.841Z,28.30
2019-05-07T20:31:22.761Z,28.07
2019-05-07T20:33:53.083Z,27.17
2019-05-07T20:36:24.205Z,26.35
2019-05-07T20:38:53.693Z,25.90
2019-05-07T20:41:24.661Z,30.40
2019-05-07T20:43:53.945Z,26.52
2019-05-07T20:46:24.817Z,25.55
2019-05-07T20:48:54.095Z,26.23
2019-05-07T20:51:23.421Z,30.80
2019-05-07T20:53:54.337Z,29.02
2019-05-07T20:56:41.924Z,32.78
2019-05-07T20:59:12.494Z,25.77
2019-05-07T21:01:42.128Z,26.17
2019-05-07T21:04:13.010Z,29.42
2019-05-07T21:06:43.317Z,28.95
2019-05-07T21:09:12.863Z,29.35
2019-05-07T21:11:43.079Z,30.00
2019-05-07T21:14:12.819Z,26.07
2019-05-07T21:16:42.577Z,28.62
2019-05-07T21:19:12.943Z,27.90
2019-05-07T21:21:42.482Z,28.32
2019-05-07T21:24:13.067Z,29.23
2019-05-07T21:26:42.802Z,32.05
2019-05-07T21:29:13.697Z,31.20
2019-05-07T21:31:44.242Z,31.68
2019-05-07T21:34:13.523Z,27.70
2019-05-07T21:36:43.420Z,29.40
2019-05-07T21:39:13.253Z,28.10
2019-05-07T21:41:42.930Z,27.67
2019-05-07T21:44:12.297Z,29.98
2019-05-07T21:46:42.530Z,31.48
2019-05-07T21:49:12.405Z,30.52
2019-05-07T21:51:41.840Z,28.07
2019-05-07T21:54:15.825Z,32.13
2019-05-07T21:56:55.312Z,31.75
2019-05-07T21:59:26.272Z,27.22
2019-05-07T22:01:57.320Z,28.98
2019-05-07T22:04:26.614Z,28.42
2019-05-07T22:06:55.945Z,32.45
2019-05-07T22:09:25.423Z,33.63
2019-05-07T22:11:54.908Z,35.88
2019-05-07T22:14:24.391Z,31.52
2019-05-07T22:16:54.600Z,33.38
2019-05-07T22:19:24.086Z,32.28
2019-05-07T22:21:53.401Z,31.93
2019-05-07T22:24:22.686Z,32.95
2019-05-07T22:26:52.012Z,32.65
2019-05-07T22:29:22.892Z,37.80
2019-05-07T22:32:08.886Z,33.25
2019-05-07T22:34:49.078Z,35.55
2019-05-07T22:37:21.971Z,39.30
2019-05-07T22:40:09.134Z,37.40
2019-05-07T22:42:40.113Z,39.00
2019-05-07T22:45:12.126Z,35.38
2019-05-07T22:47:42.141Z,35.17
2019-05-07T22:50:11.985Z,33.08
2019-05-07T22:52:41.517Z,35.45
2019-05-07T22:55:13.926Z,36.13
2019-05-07T22:57:58.957Z,33.10
2019-05-07T23:00:32.743Z,32.60
2019-05-07T23:03:02.756Z,34.38
2019-05-07T23:05:32.515Z,33.15
2019-05-07T23:08:02.486Z,35.63
2019-05-07T23:10:33.261Z,37.28
2019-05-07T23:13:02.778Z,34.13
2019-05-07T23:15:32.319Z,34.23
2019-05-07T23:18:04.085Z,34.08
2019-05-07T23:20:32.817Z,32.67
2019-05-07T23:23:02.127Z,33.75
2019-05-07T23:25:32.240Z,32.20
2019-05-07T23:28:02.833Z,33.13
2019-05-07T23:30:33.849Z,32.00
2019-05-07T23:33:04.805Z,35.08
2019-05-07T23:35:34.092Z,33.10
2019-05-07T23:38:03.383Z,32.48
2019-05-07T23:40:43.334Z,37.38
2019-05-07T23:43:14.297Z,33.63
2019-05-07T23:45:43.576Z,34.53
2019-05-07T23:48:12.874Z,36.65
2019-05-07T23:50:42.169Z,35.65
2019-05-07T23:53:12.971Z,34.70
2019-05-07T23:55:42.539Z,34.27
2019-05-07T23:58:13.987Z,36.00
